createdAt,value
2022-11-02T00:00:19.251Z,33.9
2022-11-02T00:05:21.146Z,34.1
2022-11-02T00:10:22.992Z,32.3
2022-11-02T00:15:24.866Z,31.6
2022-11-02T00:20:26.784Z,33
2022-11-02T00:25:28.705Z,31.2
2022-11-02T00:30:30.749Z,31.1
2022-11-02T00:35:32.609Z,32.4
2022-11-02T00:40:34.627Z,30.7
2022-11-02T00:45:36.514Z,30.5
2022-11-02T00:50:38.655Z,30.9
2022-11-02T00:55:40.521Z,30.8
2022-11-02T01:00:42.655Z,29.4
2022-11-02T01:05:44.838Z,28.5
2022-11-02T01:10:48.148Z,26.4
2022-11-02T01:15:50.644Z,26.2
2022-11-02T01:20:53.236Z,24.5
2022-11-02T01:25:55.102Z,24.2
2022-11-02T01:30:57.048Z,24.2
2022-11-02T01:35:58.961Z,22.9
2022-11-02T01:41:01.195Z,24.2
2022-11-02T01:46:03.076Z,23.2
2022-11-02T01:51:05.250Z,23.8
2022-11-02T01:56:07.173Z,21.1
2022-11-02T02:01:09.290Z,22.1
2022-11-02T02:06:11.432Z,23.7
2022-11-02T02:11:13.462Z,25.1
2022-11-02T02:16:15.492Z,24
2022-11-02T02:21:17.439Z,22.1
2022-11-02T02:26:19.343Z,25.5
2022-11-02T02:31:21.260Z,25.3
2022-11-02T02:36:23.375Z,24.5
2022-11-02T02:41:25.667Z,25.2
2022-11-02T02:46:27.674Z,28.8
2022-11-02T02:51:29.598Z,26.4
2022-11-02T02:56:31.541Z,29.1
2022-11-02T03:01:33.639Z,27.1
2022-11-02T03:06:36.047Z,27
2022-11-02T03:11:37.988Z,26
2022-11-02T03:16:39.854Z,25.8
2022-11-02T03:21:41.975Z,24.6
2022-11-02T03:26:43.893Z,23.6
2022-11-02T03:31:46.003Z,23.5
2022-11-02T03:36:48.047Z,23.3
2022-11-02T03:41:50.232Z,25.3
2022-11-02T03:46:52.150Z,23.5
2022-11-02T03:51:54.022Z,23.4
2022-11-02T03:56:56.067Z,23.2
2022-11-02T04:01:58.225Z,23.3
2022-11-02T04:07:01.251Z,24.2
2022-11-02T04:12:03.162Z,22.7
2022-11-02T04:17:05.106Z,23.7
2022-11-02T04:22:07.417Z,24.1
2022-11-02T04:27:09.342Z,23.7
2022-11-02T04:32:14.046Z,26.8
2022-11-02T04:37:16.104Z,23.3
2022-11-02T04:42:18.461Z,23.7
2022-11-02T04:47:20.389Z,25.8
2022-11-02T04:52:22.646Z,27
2022-11-02T04:57:24.598Z,26.6
2022-11-02T05:02:26.855Z,25.4
2022-11-02T05:07:29.687Z,25.7
2022-11-02T05:12:31.808Z,26.2
2022-11-02T05:17:33.968Z,27.1
2022-11-02T05:22:35.809Z,26.1
2022-11-02T05:27:37.885Z,29.6
2022-11-02T05:32:39.870Z,26.7
2022-11-02T05:37:42.270Z,26
2022-11-02T05:42:44.396Z,26.2
2022-11-02T05:47:46.318Z,28.4
2022-11-02T05:52:48.473Z,26.1
2022-11-02T05:57:50.986Z,25.6
2022-11-02T06:02:52.907Z,26.4
2022-11-02T06:07:55.163Z,52
2022-11-02T06:12:57.181Z,29.6
2022-11-02T06:17:59.297Z,24.7
2022-11-02T06:23:01.694Z,26.2
2022-11-02T06:28:06.028Z,24.5
2022-11-02T06:33:08.271Z,26.5
2022-11-02T06:38:20.257Z,24.4
2022-11-02T06:43:22.955Z,29.1
2022-11-02T06:48:34.501Z,24.8
2022-11-02T06:53:38.103Z,22.4
2022-11-02T06:58:40.018Z,23.3
2022-11-02T07:03:42.142Z,18.7
2022-11-02T07:08:44.655Z,45.1
2022-11-02T07:13:46.571Z,20.3
2022-11-02T07:18:48.543Z,18.9
2022-11-02T07:23:51.050Z,18.8
2022-11-02T07:28:55.256Z,16.8
2022-11-02T07:34:01.015Z,17.6
2022-11-02T07:39:03.247Z,35
2022-11-02T07:44:05.673Z,16.3
2022-11-02T07:49:07.528Z,15.1
2022-11-02T07:54:09.766Z,20.9
2022-11-02T07:59:11.766Z,41.1
2022-11-02T08:04:13.933Z,24.6
2022-11-02T08:09:16.934Z,17
2022-11-02T08:14:19.621Z,28.2
2022-11-02T08:19:21.665Z,16.5
2022-11-02T08:24:23.926Z,16.5
2022-11-02T08:29:26.820Z,18.1
2022-11-02T08:34:28.941Z,20.3
2022-11-02T08:39:31.087Z,18.7
2022-11-02T08:44:33.302Z,20
2022-11-02T08:49:33.881Z,17.4
2022-11-02T08:54:36.163Z,18
2022-11-02T08:59:38.211Z,17.1
2022-11-02T09:04:40.161Z,17.6
2022-11-02T09:09:42.148Z,18.5
2022-11-02T09:14:44.114Z,17.7
2022-11-02T09:19:46.456Z,18.1
2022-11-02T09:24:48.540Z,17.9
2022-11-02T09:29:49.302Z,30.7
2022-11-02T09:34:49.983Z,16.3
2022-11-02T09:39:52.049Z,15.1
2022-11-02T09:44:54.185Z,15.3
2022-11-02T09:49:56.238Z,13.7
2022-11-02T09:54:58.215Z,14.6
2022-11-02T10:00:00.154Z,14.3
2022-11-02T10:05:02.544Z,14.9
2022-11-02T10:10:04.754Z,15
2022-11-02T10:15:07.068Z,13
2022-11-02T10:20:09.009Z,14.3
2022-11-02T10:25:10.950Z,17.4
2022-11-02T10:30:12.897Z,16.7
2022-11-02T10:35:33.765Z,15.7
2022-11-02T10:40:19.250Z,14.4
2022-11-02T10:45:21.815Z,20.2
2022-11-02T10:50:23.928Z,16
2022-11-02T10:55:28.221Z,15.3
2022-11-02T11:00:30.266Z,14.7
2022-11-02T11:05:32.581Z,16.5
2022-11-02T11:10:36.156Z,16.8
2022-11-02T11:15:47.791Z,16.9
2022-11-02T11:20:40.543Z,16.3
2022-11-02T11:25:42.704Z,18.4
2022-11-02T11:31:00.472Z,15.7
2022-11-02T11:35:53.222Z,16.7
2022-11-02T11:40:56.128Z,14.5
2022-11-02T11:46:05.637Z,14.9
2022-11-02T11:51:02.285Z,15.6
2022-11-02T11:56:07.213Z,12.7
2022-11-02T12:01:10.991Z,14.6
2022-11-02T12:06:13.770Z,13.8
2022-11-02T12:11:18.867Z,12.7
2022-11-02T12:16:25.551Z,11.6
2022-11-02T12:21:33.565Z,12.4
2022-11-02T12:26:37.067Z,11.5
2022-11-02T12:31:39.623Z,12
2022-11-02T12:37:03.719Z,13.8
2022-11-02T12:41:42.755Z,14.9
2022-11-02T12:46:49.042Z,12.4
2022-11-02T12:51:52.050Z,13.9
2022-11-02T12:56:55.308Z,15.8
2022-11-02T13:01:58.129Z,14.8
2022-11-02T13:07:02.732Z,12.2
2022-11-02T13:12:05.621Z,17.7
2022-11-02T13:17:07.668Z,17.1
2022-11-02T13:22:09.607Z,16
2022-11-02T13:27:35.132Z,14.7
2022-11-02T13:32:20.905Z,14.4
2022-11-02T13:37:22.838Z,15.4
2022-11-02T13:42:24.818Z,15.4
2022-11-02T13:47:26.880Z,14.3
2022-11-02T13:52:28.990Z,14.9
2022-11-02T13:57:30.986Z,16.5
2022-11-02T14:02:32.962Z,24
2022-11-02T14:07:33.446Z,16.9
2022-11-02T14:12:35.911Z,16.1
2022-11-02T14:17:37.923Z,17.1
2022-11-02T14:22:39.974Z,17.2
2022-11-02T14:27:42.090Z,14.7
2022-11-02T14:32:44.310Z,16.7
2022-11-02T14:37:46.311Z,18.1
2022-11-02T14:42:48.277Z,19
2022-11-02T14:47:51.706Z,19.1
2022-11-02T14:52:53.750Z,20.5
2022-11-02T14:57:55.701Z,20.4
2022-11-02T15:02:58.171Z,22.3
2022-11-02T15:08:01.169Z,18
2022-11-02T15:13:03.654Z,17.5
2022-11-02T15:18:07.435Z,15.9
2022-11-02T15:23:11.817Z,20.4
2022-11-02T15:28:12.663Z,24.6
2022-11-02T15:33:15.745Z,25
2022-11-02T15:38:19.279Z,25.6
2022-11-02T15:43:19.868Z,25.8
2022-11-02T15:48:22.140Z,26.5
2022-11-02T15:53:24.835Z,27.2
2022-11-02T15:58:27.020Z,21.4
2022-11-02T16:03:28.971Z,21.1
2022-11-02T16:08:30.987Z,25.5
2022-11-02T16:13:37.438Z,32.1
2022-11-02T16:18:40.020Z,41.4
2022-11-02T16:23:42.247Z,40.5
2022-11-02T16:28:44.342Z,32.1
2022-11-02T16:33:46.485Z,28.6
2022-11-02T16:38:48.431Z,26.6
2022-11-02T16:43:50.359Z,32.3
2022-11-02T16:48:52.494Z,34.9
2022-11-02T16:53:54.431Z,38.1
2022-11-02T16:58:57.920Z,41.5
2022-11-02T17:03:59.879Z,45.2
2022-11-02T17:09:09.673Z,41.5
2022-11-02T17:14:11.611Z,45.9
2022-11-02T17:19:15.936Z,49.4
2022-11-02T17:24:19.400Z,44.8
2022-11-02T17:29:22.302Z,41.6
2022-11-02T17:34:24.233Z,41.4
2022-11-02T17:39:27.230Z,34.3
2022-11-02T17:44:29.657Z,35.7
2022-11-02T17:49:31.946Z,33.6
2022-11-02T17:54:33.977Z,31.4
2022-11-02T17:59:36.118Z,31.2
2022-11-02T18:04:38.234Z,31.1
2022-11-02T18:09:40.593Z,31.6
2022-11-02T18:14:42.596Z,34.9
2022-11-02T18:19:44.706Z,35.2
2022-11-02T18:24:46.789Z,36.1
2022-11-02T18:29:50.132Z,46.8
2022-11-02T18:34:52.058Z,46.6
2022-11-02T18:39:55.304Z,38.1
2022-11-02T18:44:57.896Z,39.2
2022-11-02T18:50:00.901Z,40.2
2022-11-02T18:55:03.453Z,42
2022-11-02T19:00:05.742Z,42
2022-11-02T19:05:07.684Z,48.1
2022-11-02T19:10:09.635Z,55.2
2022-11-02T19:15:12.354Z,48.7
2022-11-02T19:20:15.549Z,45.7
2022-11-02T19:25:17.811Z,48.5
2022-11-02T19:30:22.858Z,47.6
2022-11-02T19:35:26.424Z,48.2
2022-11-02T19:40:28.351Z,46.5
2022-11-02T19:45:31.189Z,48.2
2022-11-02T19:50:34.433Z,45.8
2022-11-02T19:55:36.846Z,48.9
2022-11-02T20:00:43.477Z,44.1
2022-11-02T20:05:45.949Z,46.9
2022-11-02T20:10:49.166Z,49.4
2022-11-02T20:15:51.030Z,49.8
2022-11-02T20:20:52.933Z,44.5
2022-11-02T20:25:54.833Z,44.7
2022-11-02T20:30:56.829Z,49.9
2022-11-02T20:35:58.869Z,89
2022-11-02T20:40:59.428Z,45.1
2022-11-02T20:51:06.230Z,43.9
2022-11-02T20:56:08.238Z,44.7
2022-11-02T21:01:10.554Z,44.8
2022-11-02T21:06:12.963Z,44.4
2022-11-02T21:11:14.954Z,41.5
2022-11-02T21:16:17.170Z,40.9
2022-11-02T21:21:19.257Z,42
2022-11-02T21:26:21.364Z,41.4
2022-11-02T21:31:23.556Z,43
2022-11-02T21:36:25.776Z,40.1
2022-11-02T21:41:27.755Z,37.4
2022-11-02T21:46:30.093Z,37.3
2022-11-02T21:51:30.807Z,37.2
2022-11-02T21:56:32.952Z,37.3
2022-11-02T22:01:35.910Z,35.4
2022-11-02T22:06:39.343Z,33.3
2022-11-02T22:11:41.416Z,33.9
2022-11-02T22:16:43.344Z,32.7
2022-11-02T22:21:45.437Z,33.6
2022-11-02T22:26:47.422Z,31.6
2022-11-02T22:31:49.403Z,29
2022-11-02T22:36:51.412Z,29.5
2022-11-02T22:41:53.568Z,29.4
2022-11-02T22:46:55.626Z,25.6
2022-11-02T22:51:57.788Z,26
2022-11-02T22:56:59.892Z,25.8
2022-11-02T23:02:01.967Z,25.2
2022-11-02T23:07:04.671Z,24.1
2022-11-02T23:12:06.747Z,25.6
2022-11-02T23:17:09.184Z,24.9
2022-11-02T23:27:13.436Z,37.4
2022-11-02T23:32:15.497Z,23.2
2022-11-02T23:37:17.548Z,25.1
2022-11-02T23:42:19.646Z,22.1
2022-11-02T23:47:21.831Z,23.1
2022-11-02T23:52:23.918Z,23.2
2022-11-02T23:57:26.193Z,23.2
